Nesco, New Jersey
Current Conditions -  °F | °C
As of 9:54 PM on Friday 19 Dec 2014 (Local Time) from KACY Reporting Station
Clear Clear  
Wind Chill: 22°   Ceiling: Unl
Heat Index: 27°   Visibility: 10mi
Dew Point: 20°   Wind: 5mph
Humidity: 75%   Direction: 320°NW
Pressure: 30.19"   Gusts: NA
Location:  39.637°N, 74.7602°W
Report Text: KACY 200254Z 32004KT 10SM CLR M03/M07 A3019 RMK AO2 SLP225 T10281067 51014
Loading
Personal Weather Stations






























Interactive Weather Map New forecast layout! Learn more

10-Day Weather Forecast

Advertisements
Track Severe Weather on mobile